createdAt,value
2019-05-30T00:02:04.376Z,8.90
2019-05-30T00:04:33.310Z,8.80
2019-05-30T00:07:02.516Z,8.80
2019-05-30T00:09:31.369Z,8.80
2019-05-30T00:12:00.770Z,8.80
2019-05-30T00:14:29.659Z,8.70
2019-05-30T00:16:58.796Z,8.60
2019-05-30T00:19:27.931Z,8.60
2019-05-30T00:21:56.810Z,8.50
2019-05-30T00:24:25.644Z,8.40
2019-05-30T00:26:54.425Z,8.40
2019-05-30T00:29:23.185Z,8.30
2019-05-30T00:31:51.957Z,8.20
2019-05-30T00:34:20.734Z,8.10
2019-05-30T00:36:49.886Z,8.00
2019-05-30T00:39:18.643Z,8.00
2019-05-30T00:41:47.668Z,7.90
2019-05-30T00:44:16.503Z,8.00
2019-05-30T00:46:45.326Z,8.10
2019-05-30T00:49:14.125Z,8.10
2019-05-30T00:51:42.888Z,8.10
2019-05-30T00:54:11.664Z,8.10
2019-05-30T00:56:40.431Z,8.10
2019-05-30T00:59:09.272Z,8.10
2019-05-30T01:01:38.106Z,8.10
2019-05-30T01:04:07.201Z,8.10
2019-05-30T01:06:36.245Z,8.10
2019-05-30T01:09:07.392Z,8.10
2019-05-30T01:11:36.290Z,8.10
2019-05-30T01:14:05.488Z,8.10
2019-05-30T01:16:34.337Z,8.10
2019-05-30T01:19:03.268Z,8.10
2019-05-30T01:21:32.174Z,8.10
2019-05-30T01:24:01.303Z,8.00
2019-05-30T01:26:30.259Z,8.00
2019-05-30T01:28:59.397Z,8.00
2019-05-30T01:31:28.206Z,8.00
2019-05-30T01:33:57.461Z,8.10
2019-05-30T01:36:26.504Z,8.00
2019-05-30T01:38:55.357Z,7.90
2019-05-30T01:41:24.145Z,7.80
2019-05-30T01:43:52.927Z,7.80
2019-05-30T01:46:21.804Z,7.80
2019-05-30T01:48:50.805Z,7.80
2019-05-30T01:51:19.664Z,7.80
2019-05-30T01:53:48.432Z,7.80
2019-05-30T01:56:17.370Z,7.90
2019-05-30T01:58:46.229Z,7.90
2019-05-30T02:01:24.285Z,7.90
2019-05-30T02:03:45.730Z,7.90
2019-05-30T02:06:14.790Z,7.80
2019-05-30T02:08:43.642Z,7.70
2019-05-30T02:11:12.431Z,7.70
2019-05-30T02:13:41.213Z,7.70
2019-05-30T02:16:10.098Z,7.70
2019-05-30T02:18:39.012Z,7.70
2019-05-30T02:21:07.960Z,7.70
2019-05-30T02:23:37.001Z,7.70
2019-05-30T02:26:06.267Z,7.70
2019-05-30T02:28:35.160Z,7.60
2019-05-30T02:31:05.254Z,7.60
2019-05-30T02:33:34.848Z,7.60
2019-05-30T02:36:05.844Z,7.60
2019-05-30T02:38:34.290Z,7.60
2019-05-30T02:41:03.406Z,7.50
2019-05-30T02:43:33.865Z,7.50
2019-05-30T02:46:03.446Z,7.50
2019-05-30T02:48:32.892Z,7.40
2019-05-30T02:51:03.225Z,7.30
2019-05-30T02:53:32.134Z,7.30
2019-05-30T02:56:01.405Z,7.20
2019-05-30T02:58:30.447Z,7.20
2019-05-30T03:00:59.478Z,7.20
2019-05-30T03:03:28.788Z,7.00
2019-05-30T03:05:57.725Z,7.00
2019-05-30T03:08:26.642Z,7.00
2019-05-30T03:10:55.590Z,7.00
2019-05-30T03:13:24.642Z,6.90
2019-05-30T03:15:53.590Z,6.90
2019-05-30T03:18:22.550Z,6.80
2019-05-30T03:20:51.660Z,6.80
2019-05-30T03:23:20.550Z,6.80
2019-05-30T03:25:49.488Z,6.80
2019-05-30T03:28:18.421Z,6.80
2019-05-30T03:30:47.381Z,6.70
2019-05-30T03:33:36.257Z,6.80
2019-05-30T03:35:47.714Z,6.80
2019-05-30T03:38:16.923Z,6.80
2019-05-30T03:40:45.997Z,6.90
2019-05-30T03:43:15.923Z,6.90
2019-05-30T03:45:45.582Z,6.90
2019-05-30T03:48:17.634Z,6.90
2019-05-30T03:50:50.397Z,6.90
2019-05-30T03:53:20.057Z,6.90
2019-05-30T03:55:53.836Z,6.90
2019-05-30T03:58:30.396Z,6.90
2019-05-30T04:01:05.763Z,6.90
2019-05-30T04:03:42.242Z,6.90
2019-05-30T04:06:28.737Z,6.90
2019-05-30T04:09:02.231Z,7.00
2019-05-30T04:11:39.325Z,7.10
2019-05-30T04:14:13.116Z,7.10
2019-05-30T04:16:41.956Z,7.20
2019-05-30T04:19:12.537Z,7.30
2019-05-30T04:21:41.560Z,7.30
2019-05-30T04:24:12.365Z,7.30
2019-05-30T04:26:40.905Z,7.30
2019-05-30T04:29:09.902Z,7.30
2019-05-30T04:31:38.754Z,7.30
2019-05-30T04:34:08.384Z,7.30
2019-05-30T04:36:37.337Z,7.20
2019-05-30T04:39:08.810Z,7.20
2019-05-30T04:41:37.797Z,7.20
2019-05-30T04:44:06.645Z,7.20
2019-05-30T04:46:35.434Z,7.10
2019-05-30T04:49:04.301Z,7.10
2019-05-30T04:51:33.145Z,7.00
2019-05-30T04:54:01.932Z,7.00
2019-05-30T04:56:30.710Z,7.00
2019-05-30T04:58:59.488Z,7.10
2019-05-30T05:01:28.277Z,7.10
2019-05-30T05:03:57.058Z,7.20
2019-05-30T05:06:26.150Z,7.30
2019-05-30T05:08:55.212Z,7.50
2019-05-30T05:11:25.432Z,7.60
2019-05-30T05:13:54.470Z,7.70
2019-05-30T05:16:34.850Z,7.80
2019-05-30T05:18:53.778Z,7.90
2019-05-30T05:21:23.124Z,8.00
2019-05-30T05:23:52.030Z,8.10
2019-05-30T05:26:21.612Z,8.20
2019-05-30T05:28:50.549Z,8.20
2019-05-30T05:31:20.377Z,8.30
2019-05-30T05:33:56.674Z,8.40
2019-05-30T05:36:20.953Z,8.50
2019-05-30T05:38:49.849Z,8.70
2019-05-30T05:41:18.635Z,8.90
2019-05-30T05:43:47.676Z,9.00
2019-05-30T05:46:16.523Z,9.20
2019-05-30T05:48:45.447Z,9.40
2019-05-30T05:51:14.392Z,9.50
2019-05-30T05:53:43.287Z,9.80
2019-05-30T05:56:12.253Z,10.10
2019-05-30T05:58:41.145Z,10.40
2019-05-30T06:01:10.010Z,10.50
2019-05-30T06:03:38.854Z,11.00
2019-05-30T06:06:07.637Z,11.40
2019-05-30T06:08:36.714Z,11.50
2019-05-30T06:11:05.654Z,11.70
2019-05-30T06:13:34.554Z,11.60
2019-05-30T06:16:03.445Z,11.80
2019-05-30T06:18:32.261Z,11.80
2019-05-30T06:21:01.069Z,12.00
2019-05-30T06:23:29.878Z,12.10
2019-05-30T06:25:58.679Z,12.40
2019-05-30T06:28:28.194Z,12.40
2019-05-30T06:30:59.096Z,12.60
2019-05-30T06:33:29.062Z,12.70
2019-05-30T06:35:58.005Z,12.80
2019-05-30T06:38:27.406Z,13.00
2019-05-30T06:40:56.312Z,13.20
2019-05-30T06:43:26.136Z,13.30
2019-05-30T06:45:55.006Z,13.50
2019-05-30T06:48:24.631Z,13.60
2019-05-30T06:50:53.555Z,13.70
2019-05-30T06:53:23.233Z,13.80
2019-05-30T06:55:52.117Z,14.10
2019-05-30T06:58:35.308Z,14.20
2019-05-30T07:00:51.553Z,14.60
2019-05-30T07:03:20.531Z,14.80
2019-05-30T07:05:49.899Z,15.00
2019-05-30T07:08:22.532Z,15.10
2019-05-30T07:10:51.805Z,15.10
2019-05-30T07:13:20.870Z,15.20
2019-05-30T07:15:49.819Z,15.20
2019-05-30T07:18:18.749Z,15.30
2019-05-30T07:20:47.806Z,15.20
2019-05-30T07:23:16.684Z,15.30
2019-05-30T07:25:45.502Z,15.60
2019-05-30T07:28:14.372Z,15.90
2019-05-30T07:30:43.433Z,16.20
2019-05-30T07:33:12.594Z,16.10
2019-05-30T07:35:41.473Z,16.20
2019-05-30T07:38:10.400Z,16.10
2019-05-30T07:40:39.340Z,16.10
2019-05-30T07:43:08.451Z,16.20
2019-05-30T07:45:37.322Z,16.40
2019-05-30T07:48:06.314Z,16.60
2019-05-30T07:50:35.166Z,16.90
2019-05-30T07:53:04.080Z,17.10
2019-05-30T07:55:33.273Z,16.90
2019-05-30T07:58:02.154Z,16.80
2019-05-30T08:00:31.480Z,16.70
2019-05-30T08:03:00.601Z,16.70
2019-05-30T08:05:30.374Z,16.90
2019-05-30T08:07:59.665Z,17.00
2019-05-30T08:10:29.818Z,17.10
2019-05-30T08:12:58.736Z,17.30
2019-05-30T08:15:27.645Z,17.50
2019-05-30T08:17:56.432Z,17.60
2019-05-30T08:20:25.817Z,17.40
2019-05-30T08:22:54.800Z,17.30
2019-05-30T08:25:23.604Z,17.30
2019-05-30T08:27:52.493Z,17.40
2019-05-30T08:30:21.960Z,17.70
2019-05-30T08:32:50.763Z,17.80
2019-05-30T08:35:19.734Z,17.90
2019-05-30T08:37:48.553Z,18.20
2019-05-30T08:40:17.760Z,18.30
2019-05-30T08:42:46.573Z,18.40
2019-05-30T08:45:17.728Z,18.40
2019-05-30T08:47:46.544Z,18.50
2019-05-30T08:50:15.806Z,18.50
2019-05-30T08:52:44.590Z,18.50
2019-05-30T08:55:13.947Z,18.60
2019-05-30T08:57:42.880Z,18.60
2019-05-30T09:00:12.157Z,18.70
2019-05-30T09:02:41.272Z,18.80
2019-05-30T09:05:10.313Z,19.00
2019-05-30T09:07:40.230Z,19.20
2019-05-30T09:10:10.160Z,19.50
2019-05-30T09:12:42.118Z,19.50
2019-05-30T09:15:10.640Z,19.80
2019-05-30T09:17:40.551Z,19.80
2019-05-30T09:20:10.907Z,19.70
2019-05-30T09:22:39.957Z,19.50
2019-05-30T09:25:12.540Z,19.50
2019-05-30T09:27:42.799Z,19.60
2019-05-30T09:30:12.755Z,19.60
2019-05-30T09:32:43.251Z,19.90
2019-05-30T09:35:14.196Z,20.10
2019-05-30T09:37:44.065Z,20.10
2019-05-30T09:40:14.157Z,20.20
2019-05-30T09:42:44.673Z,20.00
2019-05-30T09:45:16.330Z,19.90
2019-05-30T09:47:47.195Z,20.00
2019-05-30T09:50:17.234Z,20.00
2019-05-30T09:52:47.147Z,20.20
2019-05-30T09:55:17.417Z,20.40
2019-05-30T09:57:47.561Z,20.50
2019-05-30T10:00:18.199Z,20.60
2019-05-30T10:02:48.566Z,20.70
2019-05-30T10:05:18.211Z,20.60
2019-05-30T10:07:47.482Z,20.50
2019-05-30T10:10:17.204Z,20.60
2019-05-30T10:12:46.921Z,20.70
2019-05-30T10:15:16.659Z,20.80
2019-05-30T10:17:46.286Z,20.70
2019-05-30T10:20:16.540Z,20.70
2019-05-30T10:22:47.101Z,20.70
2019-05-30T10:25:15.982Z,20.80
2019-05-30T10:27:46.211Z,20.80
2019-05-30T10:30:15.619Z,21.00
2019-05-30T10:32:45.385Z,21.00
2019-05-30T10:35:15.660Z,21.00
2019-05-30T10:37:45.796Z,21.00
2019-05-30T10:40:15.628Z,20.90
2019-05-30T10:42:44.541Z,21.00
2019-05-30T10:45:13.781Z,21.10
2019-05-30T10:47:42.606Z,21.30
2019-05-30T10:50:11.761Z,21.40
2019-05-30T10:52:40.630Z,21.30
2019-05-30T10:55:10.803Z,21.30
2019-05-30T10:57:39.795Z,21.50
2019-05-30T11:00:10.799Z,21.60
2019-05-30T11:02:40.106Z,21.50
2019-05-30T11:05:09.594Z,21.30
2019-05-30T11:07:55.011Z,21.40
2019-05-30T11:10:24.231Z,21.40
2019-05-30T11:12:57.477Z,21.50
2019-05-30T11:15:23.666Z,21.60
2019-05-30T11:17:53.347Z,21.70
2019-05-30T11:20:23.221Z,21.80
2019-05-30T11:22:53.015Z,22.00
2019-05-30T11:25:22.969Z,22.00
2019-05-30T11:27:52.692Z,22.00
2019-05-30T11:30:21.876Z,21.90
2019-05-30T11:32:50.987Z,21.70
2019-05-30T11:35:19.957Z,21.50
2019-05-30T11:37:49.038Z,21.60
2019-05-30T11:40:17.940Z,21.80
2019-05-30T11:42:46.736Z,21.90
2019-05-30T11:45:16.127Z,22.00
2019-05-30T11:47:44.944Z,21.70
2019-05-30T11:50:14.229Z,21.60
2019-05-30T11:52:43.116Z,21.60
2019-05-30T11:55:12.108Z,21.50
2019-05-30T11:57:41.172Z,21.40
2019-05-30T12:00:11.350Z,21.50
2019-05-30T12:02:40.396Z,21.70
2019-05-30T12:05:10.568Z,21.50
2019-05-30T12:07:39.757Z,21.60
2019-05-30T12:10:09.327Z,21.60
2019-05-30T12:12:38.278Z,21.40
2019-05-30T12:15:07.400Z,21.40
2019-05-30T12:17:36.300Z,21.30
2019-05-30T12:20:06.912Z,21.40
2019-05-30T12:22:35.727Z,21.60
2019-05-30T12:25:05.232Z,21.80
2019-05-30T12:27:34.084Z,22.00
2019-05-30T12:30:02.872Z,22.00
2019-05-30T12:32:31.680Z,22.20
2019-05-30T12:35:00.578Z,22.50
2019-05-30T12:37:29.364Z,22.70
2019-05-30T12:39:58.707Z,22.90
2019-05-30T12:42:27.547Z,22.90
2019-05-30T12:44:57.003Z,22.60
2019-05-30T12:47:25.939Z,22.50
2019-05-30T12:49:55.163Z,22.50
2019-05-30T12:52:23.970Z,22.50
2019-05-30T12:54:54.375Z,22.30
2019-05-30T12:57:23.681Z,22.20
2019-05-30T12:59:52.472Z,22.10
2019-05-30T13:02:21.636Z,22.20
2019-05-30T13:04:50.510Z,22.50
2019-05-30T13:07:19.363Z,22.70
2019-05-30T13:09:48.493Z,22.90
2019-05-30T13:12:17.290Z,22.90
2019-05-30T13:14:46.406Z,22.80
2019-05-30T13:17:15.184Z,22.70
2019-05-30T13:19:44.205Z,22.70
2019-05-30T13:22:13.139Z,22.70
2019-05-30T13:24:41.971Z,22.40
2019-05-30T13:27:10.781Z,22.20
2019-05-30T13:29:39.600Z,22.30
2019-05-30T13:32:08.387Z,22.30
2019-05-30T13:34:37.208Z,22.30
2019-05-30T13:37:07.173Z,22.40
2019-05-30T13:39:36.111Z,22.40
2019-05-30T13:42:05.846Z,22.30
2019-05-30T13:44:34.933Z,22.40
2019-05-30T13:47:04.557Z,22.30
2019-05-30T13:49:33.508Z,22.50
2019-05-30T13:52:03.398Z,22.80
2019-05-30T13:54:32.380Z,23.00
2019-05-30T13:57:01.643Z,22.90
2019-05-30T13:59:30.764Z,22.80
2019-05-30T14:01:59.898Z,22.60
2019-05-30T14:04:28.696Z,22.50
2019-05-30T14:06:57.508Z,22.60
2019-05-30T14:09:26.376Z,22.50
2019-05-30T14:11:55.212Z,22.50
2019-05-30T14:14:24.013Z,22.60
2019-05-30T14:16:52.824Z,22.60
2019-05-30T14:19:24.893Z,22.60
2019-05-30T14:21:52.222Z,22.50
2019-05-30T14:24:21.034Z,22.40
2019-05-30T14:26:49.838Z,22.20
2019-05-30T14:29:19.104Z,21.80
2019-05-30T14:31:47.913Z,21.60
2019-05-30T14:34:16.743Z,21.70
2019-05-30T14:36:45.830Z,22.00
2019-05-30T14:39:14.611Z,22.30
2019-05-30T14:41:43.447Z,22.60
2019-05-30T14:44:12.506Z,22.60
2019-05-30T14:46:41.325Z,22.70
2019-05-30T14:49:10.687Z,22.80
2019-05-30T14:51:39.680Z,22.90
2019-05-30T14:54:08.841Z,22.80
2019-05-30T14:56:37.741Z,22.70
2019-05-30T14:59:06.915Z,22.40
2019-05-30T15:01:35.884Z,22.20
2019-05-30T15:04:05.161Z,22.10
2019-05-30T15:06:33.969Z,22.10
2019-05-30T15:09:15.407Z,22.10
2019-05-30T15:11:33.596Z,22.10
2019-05-30T15:14:02.463Z,22.00
2019-05-30T15:16:31.602Z,21.90
2019-05-30T15:19:00.404Z,21.90
2019-05-30T15:21:29.230Z,21.90
2019-05-30T15:23:58.028Z,21.90
2019-05-30T15:26:27.083Z,21.80
2019-05-30T15:28:55.885Z,21.80
2019-05-30T15:31:24.747Z,21.80
2019-05-30T15:33:53.578Z,21.70
2019-05-30T15:36:22.589Z,21.60
2019-05-30T15:38:51.440Z,21.50
2019-05-30T15:41:21.085Z,21.50
2019-05-30T15:43:50.060Z,21.50
2019-05-30T15:46:19.010Z,21.50
2019-05-30T15:48:47.812Z,21.50
2019-05-30T15:51:16.844Z,21.50
2019-05-30T15:53:45.750Z,21.50
2019-05-30T15:56:15.383Z,21.50
2019-05-30T15:58:44.424Z,21.50
2019-05-30T16:01:13.948Z,21.50
2019-05-30T16:03:44.959Z,21.50
2019-05-30T16:06:14.478Z,21.50
2019-05-30T16:08:45.585Z,21.40
2019-05-30T16:11:14.927Z,21.50
2019-05-30T16:13:43.908Z,21.40
2019-05-30T16:16:13.572Z,21.40
2019-05-30T16:18:42.728Z,21.40
2019-05-30T16:21:13.082Z,21.40
2019-05-30T16:23:42.116Z,21.40
2019-05-30T16:26:11.045Z,21.50
2019-05-30T16:28:40.223Z,21.50
2019-05-30T16:31:09.057Z,21.50
2019-05-30T16:33:38.042Z,21.50
2019-05-30T16:36:06.969Z,21.50
2019-05-30T16:38:35.776Z,21.50
2019-05-30T16:41:04.715Z,21.40
2019-05-30T16:43:33.641Z,21.30
2019-05-30T16:46:02.421Z,21.30
2019-05-30T16:48:31.316Z,21.20
2019-05-30T16:51:00.288Z,21.20
2019-05-30T16:53:29.519Z,21.20
2019-05-30T16:55:58.352Z,21.10
2019-05-30T16:58:27.246Z,21.10
2019-05-30T17:00:56.393Z,21.10
2019-05-30T17:03:26.134Z,21.10
2019-05-30T17:05:55.494Z,21.10
2019-05-30T17:08:24.533Z,21.10
2019-05-30T17:10:53.553Z,21.10
2019-05-30T17:13:23.805Z,21.10
2019-05-30T17:15:52.792Z,21.10
2019-05-30T17:18:22.351Z,21.00
2019-05-30T17:20:51.312Z,21.00
2019-05-30T17:23:20.707Z,21.00
2019-05-30T17:25:49.517Z,20.90
2019-05-30T17:28:18.340Z,20.80
2019-05-30T17:30:47.566Z,20.80
2019-05-30T17:33:18.255Z,20.80
2019-05-30T17:35:47.397Z,20.70
2019-05-30T17:38:16.329Z,20.70
2019-05-30T17:40:48.945Z,20.60
2019-05-30T17:43:15.924Z,20.60
2019-05-30T17:45:45.155Z,20.50
2019-05-30T17:48:16.822Z,20.50
2019-05-30T17:50:44.981Z,20.50
2019-05-30T17:53:13.766Z,20.50
2019-05-30T17:55:42.621Z,20.50
2019-05-30T17:58:11.465Z,20.50
2019-05-30T18:00:40.691Z,20.50
2019-05-30T18:03:09.662Z,20.50
2019-05-30T18:05:38.860Z,20.50
2019-05-30T18:08:07.801Z,20.40
2019-05-30T18:10:36.624Z,20.40
2019-05-30T18:13:05.632Z,20.40
2019-05-30T18:15:34.838Z,20.30
2019-05-30T18:18:03.695Z,20.30
2019-05-30T18:20:45.594Z,20.20
2019-05-30T18:23:03.710Z,20.20
2019-05-30T18:25:32.557Z,20.20
2019-05-30T18:28:01.518Z,20.10
2019-05-30T18:30:41.325Z,20.10
2019-05-30T18:33:10.274Z,20.00
2019-05-30T18:35:39.272Z,19.90
2019-05-30T18:38:09.473Z,19.80
2019-05-30T18:40:39.073Z,19.70
2019-05-30T18:43:07.983Z,19.70
2019-05-30T18:45:39.003Z,19.70
2019-05-30T18:48:08.740Z,19.60
2019-05-30T18:50:37.717Z,19.60
2019-05-30T18:53:07.171Z,19.60
2019-05-30T18:55:37.012Z,19.50
2019-05-30T18:58:07.523Z,19.50
2019-05-30T19:00:37.544Z,19.40
2019-05-30T19:03:06.689Z,19.40
2019-05-30T19:05:36.842Z,19.40
2019-05-30T19:08:05.888Z,19.40
2019-05-30T19:10:36.428Z,19.30
2019-05-30T19:13:05.644Z,19.40
2019-05-30T19:15:34.519Z,19.30
2019-05-30T19:18:03.320Z,19.30
2019-05-30T19:20:32.276Z,19.30
2019-05-30T19:23:01.144Z,19.30
2019-05-30T19:25:30.028Z,19.20
2019-05-30T19:27:58.897Z,19.30
2019-05-30T19:30:28.530Z,19.20
2019-05-30T19:32:57.345Z,19.10
2019-05-30T19:35:27.027Z,19.00
2019-05-30T19:37:55.949Z,18.90
2019-05-30T19:40:25.091Z,18.90
2019-05-30T19:42:54.058Z,18.80
2019-05-30T19:45:23.009Z,18.80
2019-05-30T19:47:51.940Z,18.70
2019-05-30T19:50:20.838Z,18.70
2019-05-30T19:52:49.919Z,18.70
2019-05-30T19:55:21.456Z,18.60
2019-05-30T19:57:49.461Z,18.60
2019-05-30T20:00:18.545Z,18.60
2019-05-30T20:02:47.901Z,18.60
2019-05-30T20:05:17.085Z,18.60
2019-05-30T20:07:45.976Z,18.60
2019-05-30T20:10:15.777Z,18.60
2019-05-30T20:12:44.569Z,18.60
2019-05-30T20:15:14.504Z,18.50
2019-05-30T20:17:43.630Z,18.50
2019-05-30T20:20:13.916Z,18.50
2019-05-30T20:22:42.737Z,18.50
2019-05-30T20:25:14.082Z,18.50
2019-05-30T20:27:43.194Z,18.50
2019-05-30T20:30:12.877Z,18.40
2019-05-30T20:32:43.155Z,18.40
2019-05-30T20:35:12.197Z,18.40
2019-05-30T20:37:41.320Z,18.40
2019-05-30T20:40:10.515Z,18.30
2019-05-30T20:42:39.318Z,18.40
2019-05-30T20:45:10.278Z,18.30
2019-05-30T20:47:42.109Z,18.20
2019-05-30T20:50:10.634Z,18.10
2019-05-30T20:52:42.217Z,18.10
2019-05-30T20:55:10.928Z,18.10
2019-05-30T20:57:40.414Z,18.00
2019-05-30T21:00:10.166Z,17.90
2019-05-30T21:02:39.198Z,17.90
2019-05-30T21:05:09.805Z,17.70
2019-05-30T21:07:39.827Z,17.60
2019-05-30T21:10:09.302Z,17.50
2019-05-30T21:12:41.848Z,17.50
2019-05-30T21:15:09.255Z,17.40
2019-05-30T21:17:38.128Z,17.30
2019-05-30T21:20:10.935Z,17.20
2019-05-30T21:22:38.128Z,17.20
2019-05-30T21:25:07.541Z,17.20
2019-05-30T21:27:36.941Z,17.10
2019-05-30T21:30:06.037Z,17.10
2019-05-30T21:32:35.363Z,17.00
2019-05-30T21:35:04.617Z,17.00
2019-05-30T21:37:33.607Z,17.10
2019-05-30T21:40:02.387Z,17.10
2019-05-30T21:42:31.201Z,17.10
2019-05-30T21:45:00.300Z,17.00
2019-05-30T21:47:29.372Z,17.00
2019-05-30T21:49:58.182Z,17.00
2019-05-30T21:52:26.994Z,17.00
2019-05-30T21:54:56.327Z,17.00
2019-05-30T21:57:25.437Z,16.90
2019-05-30T21:59:54.247Z,16.80
2019-05-30T22:02:23.020Z,16.80
2019-05-30T22:04:52.208Z,16.70
2019-05-30T22:07:21.243Z,16.70
2019-05-30T22:09:50.111Z,16.70
2019-05-30T22:12:19.163Z,16.70
2019-05-30T22:14:48.225Z,16.60
2019-05-30T22:17:17.097Z,16.60
2019-05-30T22:19:45.890Z,16.60
2019-05-30T22:22:14.772Z,16.60
2019-05-30T22:24:44.201Z,16.60
2019-05-30T22:27:13.284Z,16.50
2019-05-30T22:29:42.268Z,16.50
2019-05-30T22:32:11.335Z,16.50
2019-05-30T22:34:40.261Z,16.50
2019-05-30T22:37:09.121Z,16.50
2019-05-30T22:39:38.093Z,16.40
2019-05-30T22:42:07.212Z,16.50
2019-05-30T22:44:36.009Z,16.50
2019-05-30T22:47:05.182Z,16.50
2019-05-30T22:49:33.985Z,16.60
2019-05-30T22:52:02.804Z,16.60
2019-05-30T22:54:31.669Z,16.50
2019-05-30T22:57:01.489Z,16.60
2019-05-30T22:59:30.640Z,16.60
2019-05-30T23:01:59.665Z,16.60
2019-05-30T23:04:28.457Z,16.50
2019-05-30T23:06:57.285Z,16.50
2019-05-30T23:09:26.410Z,16.50
2019-05-30T23:11:55.967Z,16.50
2019-05-30T23:14:25.203Z,16.40
2019-05-30T23:16:54.504Z,16.40
2019-05-30T23:19:23.701Z,16.30
2019-05-30T23:21:53.318Z,16.30
2019-05-30T23:24:22.543Z,16.20
2019-05-30T23:26:51.749Z,16.20
2019-05-30T23:29:20.598Z,16.10
2019-05-30T23:31:49.980Z,16.00
2019-05-30T23:34:19.346Z,16.00
2019-05-30T23:36:48.529Z,16.00
2019-05-30T23:39:17.467Z,16.00
2019-05-30T23:41:46.388Z,16.00
2019-05-30T23:44:15.338Z,16.00
2019-05-30T23:46:44.202Z,16.00
2019-05-30T23:49:12.998Z,16.00
2019-05-30T23:51:41.808Z,16.00
2019-05-30T23:54:10.695Z,16.00
2019-05-30T23:56:42.216Z,15.90
2019-05-30T23:59:10.604Z,15.80
